Nave Atria — 3FFV5 — position and weather

sailwx.info

Track history (hours):
 
Tides and Currents Weather Stations Pressure Air Temp Water Temp Dewpoint Dewpoint Depression Visibility Wind Speed Wind Dir Waves Ship Positions

Nave Atria

Last reported at 2017-Oct-20 12:30 UTC. Time now 2017-Oct-20 12:44 UTC.
Position N 39°58' E 025°58'.

Length 183 m; draft 8 m.

Type: Tanker. MMSI: 373664000.

Date/timePositionNaut miles runAvg speedWind from/ knotsBaromVisibWave heightAir tempDewpointWater temp
2017-Oct-20 12:30N 39°58' E 025°58'611.5
2017-Oct-20 12:00N 39°53' E 025°54'510.3
2017-Oct-20 11:29N 39°48' E 025°52'5 9.4
2017-Oct-20 10:58N 39°47' E 025°58'2 3.9
2017-Oct-20 10:28N 39°48' E 025°59'0 0.0
2017-Oct-20 09:58N 39°48' E 025°59'0 0.0
2017-Oct-20 09:28N 39°48' E 025°59'0 0.1
2017-Oct-20 08:58N 39°48' E 025°59'0 0.1
2017-Oct-20 08:28N 39°48' E 025°59'0 0.0
2017-Oct-20 07:52N 39°48' E 025°59'0 0.1
2017-Oct-20 07:22N 39°48' E 025°59'0 0.1
2017-Oct-20 06:58N 39°48' E 025°59'0 0.1
2017-Oct-20 06:28N 39°48' E 025°59'0 0.0
2017-Oct-20 03:37N 39°48' E 025°59'0 0.0
2017-Oct-20 00:46N 39°48' E 025°59'0 0.0
2017-Oct-20 00:22N 39°48' E 025°59'0 0.0
2017-Oct-19 23:58N 39°48' E 025°59'0 0.0
2017-Oct-19 23:28N 39°48' E 025°59'0 0.1
2017-Oct-19 22:19N 39°48' E 025°59'0 0.4
2017-Oct-19 22:00N 39°48' E 025°59'5 6.5
2017-Oct-19 21:17N 39°44' E 025°56'1111.8
2017-Oct-19 20:20N 39°34' E 025°49'6911.5
2017-Oct-19 14:19N 38°34' E 025°04'6111.1
2017-Oct-19 08:48N 37°44' E 024°18'1011.7
2017-Oct-19 07:56N 37°36' E 024°11'203 9.7
2017-Oct-18 11:03N 36°10' E 020°22'011.6
2017-Oct-18 11:00N 36°10' E 020°21'811.5
2017-Oct-18 10:17N 36°10' E 020°11'411.6
2017-Oct-18 09:59N 36°10' E 020°07'611.7
2017-Oct-18 09:29N 36°11' E 019°60'12211.9
2017-Oct-17 23:12N 36°17' E 017°29'311.5
2017-Oct-17 22:55N 36°17' E 017°24'10411.5
2017-Oct-17 13:51N 36°22' E 015°16'611.8
2017-Oct-17 13:22N 36°23' E 015°09'512.2
2017-Oct-17 13:00N 36°23' E 015°03'812.3
2017-Oct-17 12:22N 36°23' E 014°53'412.3
2017-Oct-17 12:00N 36°24' E 014°48'612.5
2017-Oct-17 11:30N 36°24' E 014°40'612.4
2017-Oct-17 11:00N 36°26' E 014°33'612.6
2017-Oct-17 10:30N 36°28' E 014°25'612.8
2017-Oct-17 10:00N 36°30' E 014°18'612.6
2017-Oct-17 09:30N 36°32' E 014°10'612.1
2017-Oct-17 09:01N 36°34' E 014°03'612.2
2017-Oct-17 08:31N 36°36' E 013°56'612.2
2017-Oct-17 08:01N 36°37' E 013°49'612.3
2017-Oct-17 07:30N 36°39' E 013°41'612.2
2017-Oct-17 07:00N 36°41' E 013°34'712.1
2017-Oct-17 06:28N 36°44' E 013°26'512.0
2017-Oct-17 06:00N 36°45' E 013°20'612.0
2017-Oct-17 05:31N 36°47' E 013°13'611.9
2017-Oct-17 05:00N 36°49' E 013°06'611.9
2017-Oct-17 04:30N 36°50' E 012°59'611.9
2017-Oct-17 04:00N 36°52' E 012°51'611.8
2017-Oct-17 03:30N 36°53' E 012°44'611.9
2017-Oct-17 03:01N 36°55' E 012°37'911.9
2017-Oct-17 02:18N 36°57' E 012°27'511.9
2017-Oct-17 01:54N 36°58' E 012°21'911.6
2017-Oct-17 01:09N 37°01' E 012°11'311.9
2017-Oct-17 00:53N 37°02' E 012°07'1011.7
2017-Oct-17 00:03N 37°06' E 011°56'4611.7
2017-Oct-16 20:10N 37°25' E 011°04'211.3
2017-Oct-16 19:58N 37°24' E 011°01'611.4
2017-Oct-16 19:25N 37°23' E 010°53'511.3
2017-Oct-16 19:01N 37°22' E 010°48'611.0
2017-Oct-16 18:30N 37°22' E 010°40'510.9
2017-Oct-16 18:00N 37°21' E 010°34'511.1
2017-Oct-16 17:30N 37°19' E 010°27'511.0
2017-Oct-16 17:00N 37°19' E 010°20'611.2
2017-Oct-16 16:30N 37°19' E 010°13'511.2
2017-Oct-16 16:01N 37°19' E 010°06'611.3
2017-Oct-16 15:29N 37°19' E 009°59'3 6.7
2017-Oct-16 15:01N 37°17' E 009°55'2 1.6
2017-Oct-16 13:58N 37°16' E 009°53'  
Track history (hours):
 
Tides and Currents Weather Stations Pressure Air Temp Water Temp Dewpoint Dewpoint Depression Visibility Wind Speed Wind Dir Waves Ship Positions

Nave Atria

Last reported at 2017-Oct-20 12:30 UTC. Time now 2017-Oct-20 12:44 UTC.
Position N 39°58' E 025°58'.

Length 183 m; draft 8 m.

Type: Tanker. MMSI: 373664000.

Date/timePositionNaut miles runAvg speedWind from/ knotsBaromVisibWave heightAir tempDewpointWater temp
2017-Oct-20 12:30N 39°58' E 025°58'611.5
2017-Oct-20 12:00N 39°53' E 025°54'510.3
2017-Oct-20 11:29N 39°48' E 025°52'5 9.4
2017-Oct-20 10:58N 39°47' E 025°58'2 3.9
2017-Oct-20 10:28N 39°48' E 025°59'0 0.0
2017-Oct-20 09:58N 39°48' E 025°59'0 0.0
2017-Oct-20 09:28N 39°48' E 025°59'0 0.1
2017-Oct-20 08:58N 39°48' E 025°59'0 0.1
2017-Oct-20 08:28N 39°48' E 025°59'0 0.0
2017-Oct-20 07:52N 39°48' E 025°59'0 0.1
2017-Oct-20 07:22N 39°48' E 025°59'0 0.1
2017-Oct-20 06:58N 39°48' E 025°59'0 0.1
2017-Oct-20 06:28N 39°48' E 025°59'0 0.0
2017-Oct-20 03:37N 39°48' E 025°59'0 0.0
2017-Oct-20 00:46N 39°48' E 025°59'0 0.0
2017-Oct-20 00:22N 39°48' E 025°59'0 0.0
2017-Oct-19 23:58N 39°48' E 025°59'0 0.0
2017-Oct-19 23:28N 39°48' E 025°59'0 0.1
2017-Oct-19 22:19N 39°48' E 025°59'0 0.4
2017-Oct-19 22:00N 39°48' E 025°59'5 6.5
2017-Oct-19 21:17N 39°44' E 025°56'1111.8
2017-Oct-19 20:20N 39°34' E 025°49'6911.5
2017-Oct-19 14:19N 38°34' E 025°04'6111.1
2017-Oct-19 08:48N 37°44' E 024°18'1011.7
2017-Oct-19 07:56N 37°36' E 024°11'203 9.7
2017-Oct-18 11:03N 36°10' E 020°22'011.6
2017-Oct-18 11:00N 36°10' E 020°21'811.5
2017-Oct-18 10:17N 36°10' E 020°11'411.6
2017-Oct-18 09:59N 36°10' E 020°07'611.7
2017-Oct-18 09:29N 36°11' E 019°60'12211.9
2017-Oct-17 23:12N 36°17' E 017°29'311.5
2017-Oct-17 22:55N 36°17' E 017°24'10411.5
2017-Oct-17 13:51N 36°22' E 015°16'611.8
2017-Oct-17 13:22N 36°23' E 015°09'512.2
2017-Oct-17 13:00N 36°23' E 015°03'812.3
2017-Oct-17 12:22N 36°23' E 014°53'412.3
2017-Oct-17 12:00N 36°24' E 014°48'612.5
2017-Oct-17 11:30N 36°24' E 014°40'612.4
2017-Oct-17 11:00N 36°26' E 014°33'612.6
2017-Oct-17 10:30N 36°28' E 014°25'612.8
2017-Oct-17 10:00N 36°30' E 014°18'612.6
2017-Oct-17 09:30N 36°32' E 014°10'612.1
2017-Oct-17 09:01N 36°34' E 014°03'612.2
2017-Oct-17 08:31N 36°36' E 013°56'612.2
2017-Oct-17 08:01N 36°37' E 013°49'612.3
2017-Oct-17 07:30N 36°39' E 013°41'612.2
2017-Oct-17 07:00N 36°41' E 013°34'712.1
2017-Oct-17 06:28N 36°44' E 013°26'512.0
2017-Oct-17 06:00N 36°45' E 013°20'612.0
2017-Oct-17 05:31N 36°47' E 013°13'611.9
2017-Oct-17 05:00N 36°49' E 013°06'611.9
2017-Oct-17 04:30N 36°50' E 012°59'611.9
2017-Oct-17 04:00N 36°52' E 012°51'611.8
2017-Oct-17 03:30N 36°53' E 012°44'611.9
2017-Oct-17 03:01N 36°55' E 012°37'911.9
2017-Oct-17 02:18N 36°57' E 012°27'511.9
2017-Oct-17 01:54N 36°58' E 012°21'911.6
2017-Oct-17 01:09N 37°01' E 012°11'311.9
2017-Oct-17 00:53N 37°02' E 012°07'1011.7
2017-Oct-17 00:03N 37°06' E 011°56'4611.7
2017-Oct-16 20:10N 37°25' E 011°04'211.3
2017-Oct-16 19:58N 37°24' E 011°01'611.4
2017-Oct-16 19:25N 37°23' E 010°53'511.3
2017-Oct-16 19:01N 37°22' E 010°48'611.0
2017-Oct-16 18:30N 37°22' E 010°40'510.9
2017-Oct-16 18:00N 37°21' E 010°34'511.1
2017-Oct-16 17:30N 37°19' E 010°27'511.0
2017-Oct-16 17:00N 37°19' E 010°20'611.2
2017-Oct-16 16:30N 37°19' E 010°13'511.2
2017-Oct-16 16:01N 37°19' E 010°06'611.3
2017-Oct-16 15:29N 37°19' E 009°59'3 6.7
2017-Oct-16 15:01N 37°17' E 009°55'2 1.6
2017-Oct-16 13:58N 37°16' E 009°53'  

Dump ship's entire track history